createdAt,value
2022-09-11T00:01:22.278Z,9.93
2022-09-11T00:03:50.573Z,10.50
2022-09-11T00:06:29.370Z,12.43
2022-09-11T00:09:00.963Z,11.37
2022-09-11T00:11:31.665Z,12.13
2022-09-11T00:13:59.858Z,10.97
2022-09-11T00:16:29.838Z,11.57
2022-09-11T00:19:00.713Z,9.80
2022-09-11T00:21:30.451Z,10.43
2022-09-11T00:23:59.270Z,10.27
2022-09-11T00:26:27.910Z,12.03
2022-09-11T00:28:57.307Z,12.60
2022-09-11T00:31:28.140Z,12.63
2022-09-11T00:33:56.600Z,16.87
2022-09-11T00:36:26.626Z,15.40
2022-09-11T00:38:57.916Z,15.77
2022-09-11T00:41:27.738Z,14.57
2022-09-11T00:43:59.527Z,13.47
2022-09-11T00:46:34.390Z,14.27
2022-09-11T00:49:11.549Z,13.87
2022-09-11T00:51:41.089Z,14.00
2022-09-11T00:54:13.735Z,12.70
2022-09-11T00:56:43.182Z,12.70
2022-09-11T00:59:12.358Z,11.63
2022-09-11T01:01:40.472Z,11.87
2022-09-11T01:04:10.149Z,12.20
2022-09-11T01:06:38.226Z,11.43
2022-09-11T01:09:06.296Z,10.63
2022-09-11T01:11:48.288Z,8.67
2022-09-11T01:14:34.448Z,15.30
2022-09-11T01:17:15.263Z,15.17
2022-09-11T01:20:01.018Z,18.37
2022-09-11T01:23:02.376Z,19.70
2022-09-11T01:25:47.737Z,17.87
2022-09-11T01:28:24.408Z,18.73
2022-09-11T01:30:56.278Z,20.23
2022-09-11T01:33:31.002Z,21.07
2022-09-11T01:36:06.034Z,20.83
2022-09-11T01:38:39.047Z,23.63
2022-09-11T01:41:11.697Z,24.40
2022-09-11T01:43:45.338Z,24.23
2022-09-11T01:46:23.025Z,24.50
2022-09-11T01:48:59.281Z,22.57
2022-09-11T01:51:32.048Z,26.43
2022-09-11T01:54:02.422Z,25.23
2022-09-11T01:56:35.612Z,25.50
2022-09-11T01:59:08.591Z,26.77
2022-09-11T02:01:42.558Z,27.10
2022-09-11T02:04:14.786Z,24.73
2022-09-11T02:06:48.813Z,25.57
2022-09-11T02:09:22.059Z,25.27
2022-09-11T02:11:52.884Z,24.57
2022-09-11T02:14:28.146Z,26.87
2022-09-11T02:17:08.834Z,26.73
2022-09-11T02:19:36.905Z,24.50
2022-09-11T02:22:06.272Z,23.50
2022-09-11T02:24:38.168Z,23.37
2022-09-11T02:27:08.580Z,24.07
2022-09-11T02:29:39.288Z,22.73
2022-09-11T02:32:10.854Z,22.47
2022-09-11T02:34:41.419Z,29.23
2022-09-11T02:37:18.362Z,24.17
2022-09-11T02:40:06.831Z,22.40
2022-09-11T02:43:02.559Z,23.00
2022-09-11T02:45:43.648Z,22.53
2022-09-11T02:48:29.325Z,21.03
2022-09-11T02:51:05.900Z,20.27
2022-09-11T02:53:43.525Z,22.40
2022-09-11T02:56:17.859Z,22.27
2022-09-11T02:58:50.253Z,19.90
2022-09-11T03:01:19.844Z,19.50
2022-09-11T03:03:49.114Z,22.27
2022-09-11T03:06:20.277Z,18.87
2022-09-11T03:08:48.473Z,20.53
2022-09-11T03:11:18.535Z,20.90
2022-09-11T03:13:47.974Z,21.07
2022-09-11T03:16:17.296Z,20.70
2022-09-11T03:18:47.237Z,24.80
2022-09-11T03:21:16.883Z,25.10
2022-09-11T03:23:44.939Z,27.07
2022-09-11T03:26:12.995Z,24.10
2022-09-11T03:28:41.214Z,22.97
2022-09-11T03:31:13.349Z,23.73
2022-09-11T03:33:41.486Z,24.53
2022-09-11T03:36:12.602Z,23.27
2022-09-11T03:38:40.962Z,25.50
2022-09-11T03:41:09.452Z,28.03
2022-09-11T03:43:37.727Z,22.90
2022-09-11T03:46:07.175Z,33.50
2022-09-11T03:48:36.166Z,26.97
2022-09-11T03:51:05.667Z,26.13
2022-09-11T03:53:35.532Z,23.87
2022-09-11T03:56:06.418Z,22.80
2022-09-11T03:58:40.897Z,23.47
2022-09-11T04:01:10.786Z,24.63
2022-09-11T04:03:39.265Z,26.57
2022-09-11T04:06:09.517Z,24.23
2022-09-11T04:08:41.252Z,25.57
2022-09-11T04:11:12.486Z,24.33
2022-09-11T04:13:43.871Z,23.83
2022-09-11T04:16:17.680Z,25.20
2022-09-11T04:18:49.371Z,21.90
2022-09-11T04:21:19.609Z,22.33
2022-09-11T04:23:56.306Z,24.07
2022-09-11T04:26:27.928Z,23.07
2022-09-11T04:29:02.070Z,23.77
2022-09-11T04:31:30.539Z,25.13
2022-09-11T04:33:59.627Z,27.20
2022-09-11T04:36:32.629Z,21.33
2022-09-11T04:39:02.258Z,23.50
2022-09-11T04:41:31.070Z,23.53
2022-09-11T04:44:05.235Z,23.00
2022-09-11T04:46:37.099Z,23.17
2022-09-11T04:49:08.205Z,25.10
2022-09-11T04:51:38.282Z,22.33
2022-09-11T04:54:09.653Z,18.30
2022-09-11T04:56:39.036Z,18.17
2022-09-11T04:59:13.347Z,19.67
2022-09-11T05:01:44.527Z,19.00
2022-09-11T05:04:13.782Z,19.23
2022-09-11T05:06:45.281Z,21.63
2022-09-11T05:09:18.973Z,22.27
2022-09-11T05:11:49.317Z,21.30
2022-09-11T05:14:18.426Z,19.83
2022-09-11T05:16:48.828Z,20.00
2022-09-11T05:19:20.017Z,20.43
2022-09-11T05:21:48.410Z,18.73
2022-09-11T05:24:18.449Z,19.20
2022-09-11T05:26:46.500Z,18.03
2022-09-11T05:29:16.709Z,17.87
2022-09-11T05:31:53.487Z,16.27
2022-09-11T05:34:28.661Z,17.33
2022-09-11T05:36:57.824Z,17.13
2022-09-11T05:39:30.057Z,19.17
2022-09-11T05:41:59.065Z,16.30
2022-09-11T05:44:31.566Z,16.93
2022-09-11T05:47:00.116Z,17.00
2022-09-11T05:49:28.169Z,17.10
2022-09-11T05:51:56.205Z,16.30
2022-09-11T05:54:24.918Z,16.83
2022-09-11T05:56:55.713Z,15.43
2022-09-11T05:59:27.069Z,15.63
2022-09-11T06:01:56.567Z,16.70
2022-09-11T06:04:39.989Z,17.23
2022-09-11T06:07:09.362Z,17.50
2022-09-11T06:09:38.404Z,15.43
2022-09-11T06:12:10.252Z,15.73
2022-09-11T06:14:38.482Z,15.53
2022-09-11T06:17:07.489Z,15.60
2022-09-11T06:19:35.501Z,14.50
2022-09-11T06:22:03.543Z,14.43
2022-09-11T06:24:35.881Z,16.80
2022-09-11T06:27:04.467Z,15.97
2022-09-11T06:29:35.795Z,14.13
2022-09-11T06:32:04.338Z,13.57
2022-09-11T06:34:33.586Z,14.30
2022-09-11T06:37:06.177Z,14.50
2022-09-11T06:39:34.955Z,14.37
2022-09-11T06:42:03.898Z,14.00
2022-09-11T06:44:37.205Z,13.90
2022-09-11T06:47:07.083Z,14.60
2022-09-11T06:49:36.961Z,13.93
2022-09-11T06:52:34.482Z,13.40
2022-09-11T06:55:22.778Z,13.63
2022-09-11T06:58:03.406Z,15.10
2022-09-11T07:00:34.697Z,15.13
2022-09-11T07:03:03.194Z,16.70
2022-09-11T07:05:31.925Z,16.30
2022-09-11T07:08:02.058Z,13.40
2022-09-11T07:10:34.486Z,13.37
2022-09-11T07:13:03.370Z,13.83
2022-09-11T07:15:33.479Z,13.23
2022-09-11T07:18:03.169Z,14.47
2022-09-11T07:20:32.441Z,13.80
2022-09-11T07:23:00.619Z,15.13
2022-09-11T07:25:31.333Z,13.03
2022-09-11T07:27:59.966Z,13.33
2022-09-11T07:30:28.743Z,15.10
2022-09-11T07:32:58.889Z,13.87
2022-09-11T07:35:27.162Z,13.70
2022-09-11T07:37:56.918Z,14.83
2022-09-11T07:40:27.746Z,14.00
2022-09-11T07:42:58.249Z,14.93
2022-09-11T07:45:28.110Z,13.90
2022-09-11T07:47:56.222Z,16.30
2022-09-11T07:50:25.643Z,15.13
2022-09-11T07:52:53.973Z,16.33
2022-09-11T07:55:22.629Z,14.50
2022-09-11T07:57:54.056Z,15.27
2022-09-11T08:00:23.945Z,15.40
2022-09-11T08:03:02.178Z,12.33
2022-09-11T08:05:36.310Z,12.60
2022-09-11T08:08:04.844Z,13.47
2022-09-11T08:10:34.243Z,12.30
2022-09-11T08:13:02.483Z,11.63
2022-09-11T08:15:33.795Z,13.60
2022-09-11T08:18:03.669Z,12.67
2022-09-11T08:20:32.644Z,14.37
2022-09-11T08:23:02.133Z,13.30
2022-09-11T08:25:30.350Z,14.57
2022-09-11T08:28:00.170Z,13.17
2022-09-11T08:30:28.726Z,13.37
2022-09-11T08:32:56.874Z,13.10
2022-09-11T08:35:25.820Z,13.17
2022-09-11T08:37:55.146Z,12.43
2022-09-11T08:40:25.366Z,11.43
2022-09-11T08:42:58.283Z,11.43
2022-09-11T08:45:34.364Z,10.40
2022-09-11T08:48:02.987Z,9.97
2022-09-11T08:50:36.537Z,9.33
2022-09-11T08:53:09.735Z,8.97
2022-09-11T08:55:47.741Z,7.60
2022-09-11T08:58:25.527Z,9.40
2022-09-11T09:01:05.186Z,6.33
2022-09-11T09:04:04.261Z,5.93
2022-09-11T09:06:54.164Z,5.43
2022-09-11T09:09:34.832Z,5.23
2022-09-11T09:12:16.000Z,4.33
2022-09-11T09:14:59.502Z,3.93
2022-09-11T09:17:31.414Z,3.40
2022-09-11T09:20:02.203Z,3.70
2022-09-11T09:22:40.650Z,4.10
2022-09-11T09:25:14.281Z,3.50
2022-09-11T09:27:47.568Z,5.10
2022-09-11T09:30:18.059Z,3.60
2022-09-11T09:32:53.077Z,4.07
2022-09-11T09:35:24.658Z,4.10
2022-09-11T09:37:54.913Z,3.17
2022-09-11T09:40:26.437Z,3.87
2022-09-11T09:43:22.074Z,3.37
2022-09-11T09:46:00.890Z,3.60
2022-09-11T09:48:31.498Z,2.73
2022-09-11T09:50:59.538Z,2.13
2022-09-11T09:53:34.526Z,2.67
2022-09-11T09:56:04.890Z,2.63
2022-09-11T09:58:40.275Z,1.80
2022-09-11T10:01:44.010Z,3.17
2022-09-11T10:04:15.942Z,3.27
2022-09-11T10:06:45.956Z,2.87
2022-09-11T10:09:28.340Z,4.53
2022-09-11T10:12:02.657Z,2.60
2022-09-11T10:14:51.140Z,3.33
2022-09-11T10:17:22.878Z,2.53
2022-09-11T10:19:54.609Z,2.83
2022-09-11T10:22:28.953Z,2.37
2022-09-11T10:25:11.554Z,2.90
2022-09-11T10:28:02.176Z,2.93
2022-09-11T10:30:37.601Z,2.23
2022-09-11T10:33:15.275Z,2.50
2022-09-11T10:35:52.406Z,2.83
2022-09-11T10:38:22.198Z,2.40
2022-09-11T10:41:07.848Z,2.57
2022-09-11T10:43:41.841Z,2.47
2022-09-11T10:46:26.174Z,2.67
2022-09-11T10:48:56.197Z,2.30
2022-09-11T10:51:25.945Z,1.97
2022-09-11T10:54:16.288Z,2.30
2022-09-11T10:57:00.202Z,1.77
2022-09-11T10:59:39.905Z,2.43
2022-09-11T11:02:20.549Z,1.80
2022-09-11T11:04:49.062Z,2.87
2022-09-11T11:07:34.600Z,2.10
2022-09-11T11:10:18.062Z,2.17
2022-09-11T11:12:58.759Z,6.10
2022-09-11T11:15:48.604Z,2.33
2022-09-11T11:18:34.735Z,1.67
2022-09-11T11:21:13.074Z,2.00
2022-09-11T11:24:02.882Z,2.20
2022-09-11T11:26:59.051Z,1.77
2022-09-11T11:29:39.733Z,1.60
2022-09-11T11:32:21.438Z,1.43
2022-09-11T11:35:08.065Z,1.97
2022-09-11T11:37:41.570Z,2.30
2022-09-11T11:40:18.436Z,1.70
2022-09-11T11:42:54.077Z,1.93
2022-09-11T11:45:27.503Z,1.77
2022-09-11T11:47:56.154Z,1.53
2022-09-11T11:50:31.927Z,1.30
2022-09-11T11:53:11.163Z,1.43
2022-09-11T11:55:49.461Z,0.97
2022-09-11T11:58:28.136Z,1.00
2022-09-11T12:01:01.656Z,1.20
2022-09-11T12:03:37.598Z,2.13
2022-09-11T12:06:08.534Z,1.53
2022-09-11T12:08:43.472Z,1.37
2022-09-11T12:11:14.004Z,1.20
2022-09-11T12:13:44.568Z,2.30
2022-09-11T12:16:16.224Z,0.93
2022-09-11T12:19:04.196Z,1.73
2022-09-11T12:22:11.267Z,0.87
2022-09-11T12:24:58.820Z,0.87
2022-09-11T12:27:55.642Z,0.80
2022-09-11T12:30:27.143Z,1.67
2022-09-11T12:32:56.981Z,0.93
2022-09-11T12:35:30.004Z,0.83
2022-09-11T12:38:03.846Z,0.70
2022-09-11T12:40:38.960Z,2.53
2022-09-11T12:43:28.178Z,2.10
2022-09-11T12:45:56.897Z,1.07
2022-09-11T12:48:33.407Z,1.27
2022-09-11T12:51:02.318Z,2.30
2022-09-11T12:53:33.918Z,1.97
2022-09-11T12:56:05.103Z,0.50
2022-09-11T12:58:38.269Z,0.93
2022-09-11T13:01:17.702Z,1.17
2022-09-11T13:03:58.306Z,1.00
2022-09-11T13:06:39.087Z,0.70
2022-09-11T13:09:18.161Z,0.70
2022-09-11T13:11:49.102Z,0.70
2022-09-11T13:14:50.863Z,0.50
2022-09-11T13:17:30.484Z,0.70
2022-09-11T13:20:20.130Z,0.70
2022-09-11T13:22:49.038Z,1.23
2022-09-11T13:25:20.597Z,0.80
2022-09-11T13:27:50.866Z,1.40
2022-09-11T13:30:21.599Z,2.43
2022-09-11T13:32:52.137Z,1.53
2022-09-11T13:35:26.904Z,1.80
2022-09-11T13:37:58.864Z,0.70
2022-09-11T13:40:32.290Z,0.60
2022-09-11T13:43:01.787Z,1.17
2022-09-11T13:45:29.889Z,0.90
2022-09-11T13:47:58.322Z,0.87
2022-09-11T13:50:27.569Z,0.50
2022-09-11T13:52:55.988Z,0.70
2022-09-11T13:55:27.096Z,1.50
2022-09-11T13:57:58.487Z,0.90
2022-09-11T14:00:41.791Z,2.23
2022-09-11T14:03:22.927Z,0.80
2022-09-11T14:05:53.865Z,0.80
2022-09-11T14:08:27.913Z,0.80
2022-09-11T14:10:59.154Z,0.80
2022-09-11T14:13:34.110Z,0.80
2022-09-11T14:16:05.770Z,0.73
2022-09-11T14:18:37.144Z,0.80
2022-09-11T14:21:13.422Z,0.77
2022-09-11T14:23:44.646Z,1.37
2022-09-11T14:26:17.860Z,1.13
2022-09-11T14:29:06.880Z,0.80
2022-09-11T14:31:37.896Z,1.13
2022-09-11T14:34:15.497Z,0.90
2022-09-11T14:36:46.410Z,0.90
2022-09-11T14:39:18.381Z,1.00
2022-09-11T14:41:46.586Z,1.77
2022-09-11T14:44:18.043Z,0.90
2022-09-11T14:46:46.768Z,0.70
2022-09-11T14:49:15.495Z,0.80
2022-09-11T14:51:43.869Z,0.97
2022-09-11T14:54:16.294Z,1.20
2022-09-11T14:56:45.163Z,0.80
2022-09-11T14:59:13.872Z,0.80
2022-09-11T15:01:43.374Z,1.07
2022-09-11T15:04:16.696Z,2.10
2022-09-11T15:06:44.791Z,1.07
2022-09-11T15:09:12.813Z,0.77
2022-09-11T15:11:41.641Z,1.03
2022-09-11T15:14:23.355Z,1.27
2022-09-11T15:16:58.203Z,1.77
2022-09-11T15:19:26.285Z,1.43
2022-09-11T15:21:54.321Z,1.17
2022-09-11T15:24:22.398Z,0.93
2022-09-11T15:26:52.046Z,2.40
2022-09-11T15:29:20.637Z,1.53
2022-09-11T15:31:49.085Z,1.10
2022-09-11T15:34:18.981Z,0.80
2022-09-11T15:36:48.750Z,1.63
2022-09-11T15:39:19.096Z,1.37
2022-09-11T15:41:48.192Z,1.33
2022-09-11T15:44:20.769Z,0.80
2022-09-11T15:46:50.082Z,1.77
2022-09-11T15:49:21.693Z,0.70
2022-09-11T15:51:49.777Z,1.07
2022-09-11T15:54:20.457Z,1.27
2022-09-11T15:56:48.594Z,1.60
2022-09-11T15:59:17.277Z,1.20
2022-09-11T16:01:45.766Z,0.90
2022-09-11T16:04:16.434Z,1.97
2022-09-11T16:06:47.678Z,1.50
2022-09-11T16:09:17.833Z,0.87
2022-09-11T16:11:48.047Z,0.87
2022-09-11T16:14:19.086Z,0.80
2022-09-11T16:16:48.134Z,1.17
2022-09-11T16:19:16.571Z,1.13
2022-09-11T16:21:46.714Z,0.80
2022-09-11T16:24:15.942Z,1.07
2022-09-11T16:26:44.991Z,1.20
2022-09-11T16:29:15.475Z,1.80
2022-09-11T16:31:43.934Z,1.07
2022-09-11T16:34:12.730Z,1.07
2022-09-11T16:36:42.658Z,0.93
2022-09-11T16:39:15.186Z,1.80
2022-09-11T16:41:44.502Z,1.00
2022-09-11T16:44:16.503Z,1.23
2022-09-11T16:46:46.850Z,1.33
2022-09-11T16:49:18.202Z,2.30
2022-09-11T16:51:48.350Z,1.23
2022-09-11T16:54:18.368Z,1.00
2022-09-11T16:56:46.395Z,1.27
2022-09-11T16:59:15.589Z,1.63
2022-09-11T17:01:43.995Z,1.63
2022-09-11T17:04:12.189Z,2.07
2022-09-11T17:06:40.186Z,1.80
2022-09-11T17:09:08.198Z,2.00
2022-09-11T17:11:37.613Z,2.23
2022-09-11T17:14:05.631Z,1.00
2022-09-11T17:16:35.668Z,1.17
2022-09-11T17:19:03.726Z,0.90
2022-09-11T17:21:35.805Z,1.97
2022-09-11T17:24:16.442Z,1.20
2022-09-11T17:26:46.158Z,3.23
2022-09-11T17:29:14.675Z,1.03
2022-09-11T17:31:42.686Z,1.17
2022-09-11T17:34:10.815Z,1.00
2022-09-11T17:36:40.056Z,1.03
2022-09-11T17:39:09.346Z,1.07
2022-09-11T17:41:37.423Z,1.67
2022-09-11T17:44:06.795Z,1.80
2022-09-11T17:46:35.947Z,0.90
2022-09-11T17:49:04.376Z,1.83
2022-09-11T17:51:32.569Z,1.07
2022-09-11T17:54:00.690Z,0.90
2022-09-11T17:56:31.550Z,0.80
2022-09-11T17:59:00.576Z,1.10
2022-09-11T18:01:31.415Z,2.60
2022-09-11T18:04:00.744Z,2.47
2022-09-11T18:06:30.435Z,0.80
2022-09-11T18:09:01.592Z,1.73
2022-09-11T18:11:30.088Z,2.10
2022-09-11T18:13:58.298Z,1.67
2022-09-11T18:16:26.554Z,0.90
2022-09-11T18:18:56.511Z,0.90
2022-09-11T18:21:25.803Z,2.23
2022-09-11T18:23:54.702Z,1.33
2022-09-11T18:26:25.693Z,0.83
2022-09-11T18:28:59.916Z,1.77
2022-09-11T18:31:30.184Z,1.10
2022-09-11T18:34:01.629Z,0.87
2022-09-11T18:36:31.813Z,1.70
2022-09-11T18:39:02.860Z,1.00
2022-09-11T18:41:32.505Z,0.80
2022-09-11T18:44:03.683Z,1.97
2022-09-11T18:46:32.677Z,1.00
2022-09-11T18:49:02.073Z,1.13
2022-09-11T18:51:30.147Z,2.23
2022-09-11T18:53:59.508Z,1.30
2022-09-11T18:56:31.134Z,0.93
2022-09-11T18:59:00.329Z,1.23
2022-09-11T19:01:32.423Z,1.10
2022-09-11T19:04:06.551Z,0.90
2022-09-11T19:06:34.541Z,1.10
2022-09-11T19:09:02.581Z,2.43
2022-09-11T19:11:32.146Z,1.20
2022-09-11T19:14:05.099Z,1.50
2022-09-11T19:16:33.840Z,0.90
2022-09-11T19:19:03.946Z,1.13
2022-09-11T19:21:32.029Z,1.07
2022-09-11T19:24:01.642Z,2.03
2022-09-11T19:26:31.058Z,1.30
2022-09-11T19:29:00.347Z,1.97
2022-09-11T19:31:30.145Z,1.50
2022-09-11T19:34:00.781Z,1.37
2022-09-11T19:36:32.594Z,1.73
2022-09-11T19:39:01.077Z,2.63
2022-09-11T19:41:31.619Z,2.03
2022-09-11T19:44:01.505Z,2.57
2022-09-11T19:46:31.302Z,2.87
2022-09-11T19:49:02.749Z,1.83
2022-09-11T19:51:33.982Z,2.17
2022-09-11T19:54:03.674Z,1.70
2022-09-11T19:56:32.933Z,1.93
2022-09-11T19:59:01.091Z,1.70
2022-09-11T20:01:30.550Z,2.63
2022-09-11T20:04:00.752Z,2.50
2022-09-11T20:06:32.714Z,2.20
2022-09-11T20:09:29.768Z,2.03
2022-09-11T20:11:49.552Z,2.43
2022-09-11T20:14:17.742Z,2.03
2022-09-11T20:16:45.767Z,2.33
2022-09-11T20:19:14.925Z,2.17
2022-09-11T20:21:44.582Z,3.73
2022-09-11T20:24:12.717Z,2.00
2022-09-11T20:26:40.696Z,2.20
2022-09-11T20:29:12.758Z,2.50
2022-09-11T20:31:47.434Z,2.60
2022-09-11T20:34:16.918Z,4.07
2022-09-11T20:36:46.536Z,2.80
2022-09-11T20:39:16.126Z,2.83
2022-09-11T20:41:44.618Z,3.73
2022-09-11T20:44:13.120Z,2.90
2022-09-11T20:46:43.473Z,2.57
2022-09-11T20:49:12.866Z,3.30
2022-09-11T20:51:40.891Z,4.10
2022-09-11T20:54:10.730Z,2.20
2022-09-11T20:56:38.947Z,2.40
2022-09-11T20:59:07.315Z,3.70
2022-09-11T21:01:36.038Z,2.30
2022-09-11T21:04:05.203Z,2.30
2022-09-11T21:06:35.533Z,2.23
2022-09-11T21:09:06.804Z,2.40
2022-09-11T21:11:37.150Z,2.70
2022-09-11T21:14:05.263Z,2.77
2022-09-11T21:16:33.581Z,2.80
2022-09-11T21:19:03.189Z,3.13
2022-09-11T21:21:32.552Z,2.70
2022-09-11T21:24:03.352Z,4.40
2022-09-11T21:26:32.469Z,2.73
2022-09-11T21:29:03.983Z,3.70
2022-09-11T21:31:32.054Z,2.83
2022-09-11T21:34:00.543Z,2.20
2022-09-11T21:36:29.244Z,2.83
2022-09-11T21:38:57.451Z,2.63
2022-09-11T21:41:25.609Z,2.37
2022-09-11T21:43:53.581Z,2.43
2022-09-11T21:46:23.002Z,3.50
2022-09-11T21:48:51.009Z,2.60
2022-09-11T21:51:20.986Z,2.77
2022-09-11T21:53:55.696Z,5.23
2022-09-11T21:56:25.989Z,3.13
2022-09-11T21:58:55.015Z,2.73
2022-09-11T22:01:25.699Z,2.60
2022-09-11T22:03:54.626Z,2.50
2022-09-11T22:06:23.709Z,2.60
2022-09-11T22:08:52.353Z,2.30
2022-09-11T22:11:20.750Z,2.47
2022-09-11T22:13:48.849Z,2.60
2022-09-11T22:16:18.610Z,2.13
2022-09-11T22:18:51.138Z,2.40
2022-09-11T22:21:19.618Z,2.37
2022-09-11T22:23:47.823Z,3.20
2022-09-11T22:26:17.795Z,2.50
2022-09-11T22:28:45.829Z,2.77
2022-09-11T22:31:16.742Z,2.93
2022-09-11T22:33:44.966Z,2.67
2022-09-11T22:36:16.639Z,2.70
2022-09-11T22:38:44.821Z,2.90
2022-09-11T22:41:13.141Z,2.80
2022-09-11T22:43:41.213Z,2.70
2022-09-11T22:46:09.610Z,2.43
2022-09-11T22:48:37.919Z,3.07
2022-09-11T22:51:06.027Z,2.13
2022-09-11T22:53:35.889Z,2.53
2022-09-11T22:56:04.196Z,2.33
2022-09-11T22:58:32.209Z,2.60
2022-09-11T23:01:02.460Z,2.93
2022-09-11T23:03:30.981Z,3.17
2022-09-11T23:06:18.499Z,2.73
2022-09-11T23:08:48.803Z,3.07
2022-09-11T23:11:19.626Z,2.53
2022-09-11T23:13:49.024Z,3.03
2022-09-11T23:16:19.455Z,2.37
2022-09-11T23:18:48.360Z,3.63
2022-09-11T23:21:16.443Z,2.77
2022-09-11T23:23:45.237Z,2.63
2022-09-11T23:26:15.095Z,2.93
2022-09-11T23:28:43.330Z,2.43
2022-09-11T23:31:12.631Z,2.70
2022-09-11T23:33:40.702Z,2.90
2022-09-11T23:36:11.304Z,2.70
2022-09-11T23:38:40.318Z,2.83
2022-09-11T23:41:08.803Z,2.67
2022-09-11T23:43:38.203Z,2.33
2022-09-11T23:46:06.410Z,2.90
2022-09-11T23:48:34.539Z,2.53
2022-09-11T23:51:02.713Z,2.70
2022-09-11T23:53:31.215Z,3.27
2022-09-11T23:55:59.683Z,2.80
2022-09-11T23:58:27.858Z,3.50
